createdAt,value
2023-01-30T00:01:32.476Z,2.51
2023-01-30T00:04:00.096Z,2.53
2023-01-30T00:06:27.455Z,2.54
2023-01-30T00:08:54.929Z,2.54
2023-01-30T00:11:22.394Z,2.55
2023-01-30T00:13:50.819Z,2.57
2023-01-30T00:16:18.866Z,2.56
2023-01-30T00:18:48.364Z,2.59
2023-01-30T00:21:18.524Z,2.61
2023-01-30T00:23:48.012Z,2.60
2023-01-30T00:26:15.070Z,2.60
2023-01-30T00:28:44.569Z,2.59
2023-01-30T00:31:12.687Z,2.59
2023-01-30T00:33:39.915Z,2.58
2023-01-30T00:36:10.869Z,2.58
2023-01-30T00:38:37.944Z,2.56
2023-01-30T00:41:05.119Z,2.56
2023-01-30T00:43:50.353Z,2.57
2023-01-30T00:46:52.292Z,2.56
2023-01-30T00:49:19.808Z,2.54
2023-01-30T00:51:47.196Z,2.54
2023-01-30T00:54:14.397Z,2.52
2023-01-30T00:56:44.137Z,2.52
2023-01-30T00:59:11.154Z,2.51
2023-01-30T01:01:38.278Z,2.48
2023-01-30T01:04:08.960Z,2.46
2023-01-30T01:06:38.661Z,2.44
2023-01-30T01:09:07.022Z,2.43
2023-01-30T01:11:34.080Z,2.45
2023-01-30T01:14:09.697Z,2.45
2023-01-30T01:16:36.921Z,2.41
2023-01-30T01:19:04.604Z,2.42
2023-01-30T01:21:31.612Z,2.43
2023-01-30T01:24:00.800Z,2.42
2023-01-30T01:26:28.101Z,2.40
2023-01-30T01:28:57.776Z,2.39
2023-01-30T01:31:25.729Z,2.40
2023-01-30T01:33:52.959Z,2.42
2023-01-30T01:36:49.783Z,2.43
2023-01-30T01:39:07.242Z,2.41
2023-01-30T01:41:34.237Z,2.38
2023-01-30T01:44:12.418Z,2.35
2023-01-30T01:46:42.437Z,2.37
2023-01-30T01:49:33.111Z,2.33
2023-01-30T01:52:13.329Z,2.36
2023-01-30T01:55:00.794Z,2.37
2023-01-30T01:57:46.175Z,2.38
2023-01-30T02:00:17.777Z,2.40
2023-01-30T02:02:54.792Z,2.42
2023-01-30T02:05:22.344Z,2.41
2023-01-30T02:08:07.343Z,2.38
2023-01-30T02:10:46.424Z,2.34
2023-01-30T02:13:13.411Z,2.30
2023-01-30T02:15:40.788Z,2.22
2023-01-30T02:18:07.983Z,2.15
2023-01-30T02:20:56.269Z,2.09
2023-01-30T02:24:25.575Z,2.04
2023-01-30T02:27:29.412Z,2.00
2023-01-30T02:30:27.142Z,1.98
2023-01-30T02:33:04.124Z,1.99
2023-01-30T02:36:15.769Z,1.99
2023-01-30T02:39:49.723Z,2.01
2023-01-30T02:42:50.715Z,2.04
2023-01-30T02:45:43.305Z,2.05
2023-01-30T02:48:22.294Z,2.05
2023-01-30T02:51:22.320Z,2.01
2023-01-30T02:53:50.930Z,1.99
2023-01-30T02:56:18.059Z,1.97
2023-01-30T02:59:02.806Z,1.94
2023-01-30T03:01:49.006Z,1.93
2023-01-30T03:04:43.219Z,1.90
2023-01-30T03:07:28.714Z,1.91
2023-01-30T03:10:09.677Z,1.93
2023-01-30T03:13:21.175Z,1.95
2023-01-30T03:16:00.066Z,1.96
2023-01-30T03:18:27.204Z,1.99
2023-01-30T03:20:54.667Z,2.02
2023-01-30T03:23:21.695Z,2.03
2023-01-30T03:25:49.543Z,2.07
2023-01-30T03:28:21.217Z,2.11
2023-01-30T03:30:48.288Z,2.13
2023-01-30T03:33:15.282Z,2.16
2023-01-30T03:35:43.319Z,2.18
2023-01-30T03:38:11.090Z,2.20
2023-01-30T03:40:38.193Z,2.22
2023-01-30T03:43:07.854Z,2.26
2023-01-30T03:45:34.935Z,2.29
2023-01-30T03:48:01.933Z,2.32
2023-01-30T03:50:29.549Z,2.32
2023-01-30T03:52:56.512Z,2.32
2023-01-30T03:55:23.484Z,2.34
2023-01-30T03:57:56.812Z,2.33
2023-01-30T04:00:23.934Z,2.32
2023-01-30T04:02:51.111Z,2.30
2023-01-30T04:05:19.092Z,2.30
2023-01-30T04:07:46.348Z,2.32
2023-01-30T04:10:15.496Z,2.35
2023-01-30T04:12:43.212Z,2.39
2023-01-30T04:15:11.407Z,2.41
2023-01-30T04:17:38.336Z,2.44
2023-01-30T04:20:06.207Z,2.47
2023-01-30T04:22:33.167Z,2.52
2023-01-30T04:25:00.139Z,2.53
2023-01-30T04:27:27.217Z,2.57
2023-01-30T04:29:54.244Z,2.62
2023-01-30T04:32:23.723Z,2.65
2023-01-30T04:34:52.912Z,2.68
2023-01-30T04:37:19.867Z,2.74
2023-01-30T04:39:46.840Z,2.77
2023-01-30T04:42:13.915Z,2.81
2023-01-30T04:44:40.865Z,2.86
2023-01-30T04:47:10.211Z,2.90
2023-01-30T04:49:37.167Z,2.94
2023-01-30T04:52:04.499Z,2.97
2023-01-30T04:54:31.443Z,2.99
2023-01-30T04:56:58.511Z,3.00
2023-01-30T04:59:25.640Z,3.01
2023-01-30T05:01:52.756Z,3.01
2023-01-30T05:04:19.784Z,3.02
2023-01-30T05:06:46.836Z,3.03
2023-01-30T05:09:13.886Z,3.01
2023-01-30T05:11:40.931Z,2.99
2023-01-30T05:14:07.908Z,2.98
2023-01-30T05:16:35.181Z,2.93
2023-01-30T05:19:02.215Z,2.88
2023-01-30T05:21:29.285Z,2.81
2023-01-30T05:23:57.634Z,2.76
2023-01-30T05:26:25.514Z,2.73
2023-01-30T05:28:57.648Z,2.70
2023-01-30T05:31:25.086Z,2.69
2023-01-30T05:33:52.694Z,2.68
2023-01-30T05:36:21.895Z,2.67
2023-01-30T05:38:49.002Z,2.65
2023-01-30T05:41:17.490Z,2.65
2023-01-30T05:43:44.618Z,2.65
2023-01-30T05:46:13.250Z,2.64
2023-01-30T05:48:40.492Z,2.63
2023-01-30T05:51:16.852Z,2.64
2023-01-30T05:53:43.794Z,2.64
2023-01-30T05:56:15.950Z,2.65
2023-01-30T05:58:52.608Z,2.65
2023-01-30T06:01:19.934Z,2.65
2023-01-30T06:03:47.185Z,2.67
2023-01-30T06:06:17.124Z,2.68
2023-01-30T06:08:44.597Z,2.69
2023-01-30T06:11:17.363Z,2.73
2023-01-30T06:13:50.807Z,2.76
2023-01-30T06:16:19.362Z,2.78
2023-01-30T06:18:49.667Z,2.81
2023-01-30T06:21:16.968Z,2.83
2023-01-30T06:23:44.591Z,2.89
2023-01-30T06:26:11.626Z,2.92
2023-01-30T06:28:38.698Z,2.96
2023-01-30T06:31:09.588Z,3.01
2023-01-30T06:33:37.047Z,3.04
2023-01-30T06:36:04.615Z,3.10
2023-01-30T06:38:31.772Z,3.14
2023-01-30T06:40:58.862Z,3.17
2023-01-30T06:43:25.938Z,3.20
2023-01-30T06:45:52.905Z,3.25
2023-01-30T06:48:19.969Z,3.30
2023-01-30T06:50:48.221Z,3.31
2023-01-30T06:53:15.352Z,3.34
2023-01-30T06:55:42.352Z,3.39
2023-01-30T06:58:14.928Z,3.43
2023-01-30T07:00:43.476Z,3.47
2023-01-30T07:03:16.225Z,3.50
2023-01-30T07:05:45.217Z,3.54
2023-01-30T07:08:13.389Z,3.59
2023-01-30T07:10:41.991Z,3.63
2023-01-30T07:13:09.115Z,3.68
2023-01-30T07:15:36.217Z,3.69
2023-01-30T07:18:03.415Z,3.74
2023-01-30T07:20:31.389Z,3.78
2023-01-30T07:22:59.262Z,3.82
2023-01-30T07:25:28.470Z,3.88
2023-01-30T07:28:01.698Z,3.92
2023-01-30T07:30:32.687Z,3.97
2023-01-30T07:33:00.713Z,3.99
2023-01-30T07:35:31.479Z,4.05
2023-01-30T07:37:58.555Z,4.08
2023-01-30T07:40:26.799Z,4.13
2023-01-30T07:43:04.923Z,4.19
2023-01-30T07:45:39.545Z,4.26
2023-01-30T07:48:08.455Z,4.32
2023-01-30T07:50:35.422Z,4.37
2023-01-30T07:53:07.802Z,4.41
2023-01-30T07:55:35.378Z,4.44
2023-01-30T07:58:03.619Z,4.49
2023-01-30T08:00:31.493Z,4.51
2023-01-30T08:02:59.084Z,4.53
2023-01-30T08:05:26.673Z,4.55
2023-01-30T08:07:56.584Z,4.58
2023-01-30T08:10:24.049Z,4.62
2023-01-30T08:12:51.841Z,4.65
2023-01-30T08:15:20.581Z,4.70
2023-01-30T08:17:56.532Z,4.75
2023-01-30T08:20:24.481Z,4.79
2023-01-30T08:22:51.573Z,4.81
2023-01-30T08:25:19.130Z,4.81
2023-01-30T08:27:46.082Z,4.83
2023-01-30T08:30:13.829Z,4.85
2023-01-30T08:32:40.886Z,4.88
2023-01-30T08:35:08.935Z,4.91
2023-01-30T08:37:35.966Z,4.95
2023-01-30T08:40:02.982Z,4.99
2023-01-30T08:42:30.135Z,4.99
2023-01-30T08:44:57.106Z,5.01
2023-01-30T08:47:24.049Z,5.02
2023-01-30T08:49:52.860Z,5.02
2023-01-30T08:52:20.627Z,5.04
2023-01-30T08:54:48.318Z,5.08
2023-01-30T08:57:16.124Z,5.12
2023-01-30T08:59:43.159Z,5.17
2023-01-30T09:02:13.822Z,5.21
2023-01-30T09:04:40.833Z,5.25
2023-01-30T09:07:08.009Z,5.39
2023-01-30T09:09:35.588Z,5.61
2023-01-30T09:12:02.554Z,5.91
2023-01-30T09:14:29.600Z,6.04
2023-01-30T09:16:56.727Z,6.05
2023-01-30T09:19:26.126Z,6.02
2023-01-30T09:21:54.246Z,5.97
2023-01-30T09:24:26.524Z,5.90
2023-01-30T09:26:57.520Z,5.93
2023-01-30T09:29:28.503Z,5.99
2023-01-30T09:31:59.155Z,6.06
2023-01-30T09:34:28.728Z,6.06
2023-01-30T09:37:04.766Z,6.07
2023-01-30T09:39:32.301Z,6.09
2023-01-30T09:42:31.798Z,6.08
2023-01-30T09:45:29.339Z,6.05
2023-01-30T09:48:07.282Z,6.11
2023-01-30T09:51:11.017Z,6.23
2023-01-30T09:54:17.654Z,6.39
2023-01-30T09:56:44.790Z,6.56
2023-01-30T09:59:23.862Z,6.63
2023-01-30T10:02:36.644Z,6.67
2023-01-30T10:05:05.440Z,6.72
2023-01-30T10:08:32.058Z,6.64
2023-01-30T10:11:10.310Z,6.59
2023-01-30T10:14:23.346Z,6.68
2023-01-30T10:17:10.757Z,6.82
2023-01-30T10:20:17.925Z,6.88
2023-01-30T10:23:06.175Z,6.93
2023-01-30T10:25:45.300Z,7.02
2023-01-30T10:28:33.025Z,7.15
2023-01-30T10:31:08.956Z,7.44
2023-01-30T10:33:58.361Z,7.82
2023-01-30T10:37:04.086Z,8.31
2023-01-30T10:40:36.891Z,8.48
2023-01-30T10:43:38.981Z,8.29
2023-01-30T10:46:42.642Z,8.07
2023-01-30T10:49:19.947Z,7.83
2023-01-30T10:51:49.902Z,7.67
2023-01-30T10:54:48.471Z,7.55
2023-01-30T10:57:26.394Z,7.48
2023-01-30T11:00:10.404Z,7.36
2023-01-30T11:03:22.062Z,7.29
2023-01-30T11:05:54.486Z,7.22
2023-01-30T11:08:31.328Z,7.21
2023-01-30T11:11:00.040Z,7.25
2023-01-30T11:13:33.798Z,7.24
2023-01-30T11:16:07.469Z,7.22
2023-01-30T11:21:44.027Z,7.23
2023-01-30T11:24:43.439Z,7.35
2023-01-30T11:27:27.836Z,7.46
2023-01-30T11:30:10.746Z,7.53
2023-01-30T11:32:37.738Z,7.56
2023-01-30T11:35:07.598Z,7.55
2023-01-30T11:37:40.674Z,7.64
2023-01-30T11:40:23.944Z,7.78
2023-01-30T11:43:04.550Z,7.93
2023-01-30T11:45:47.894Z,7.95
2023-01-30T11:48:31.518Z,7.87
2023-01-30T11:51:06.952Z,7.73
2023-01-30T11:53:45.559Z,7.62
2023-01-30T11:56:55.768Z,7.57
2023-01-30T11:59:32.984Z,7.52
2023-01-30T12:02:23.027Z,7.42
2023-01-30T12:04:55.729Z,7.44
2023-01-30T12:07:31.105Z,7.37
2023-01-30T12:09:59.219Z,7.29
2023-01-30T12:12:48.104Z,6.92
2023-01-30T12:15:31.629Z,6.35
2023-01-30T12:18:27.208Z,6.01
2023-01-30T12:21:10.034Z,5.84
2023-01-30T12:23:40.878Z,5.89
2023-01-30T12:26:35.348Z,6.00
2023-01-30T12:29:30.063Z,6.21
2023-01-30T12:32:20.453Z,6.40
2023-01-30T12:34:48.416Z,6.55
2023-01-30T12:37:36.858Z,6.69
2023-01-30T12:40:28.637Z,6.89
2023-01-30T12:43:22.887Z,6.99
2023-01-30T12:46:31.638Z,7.04
2023-01-30T12:49:11.757Z,7.03
2023-01-30T12:52:03.367Z,6.96
2023-01-30T12:55:16.016Z,6.85
2023-01-30T12:58:01.087Z,6.85
2023-01-30T13:00:30.814Z,6.91
2023-01-30T13:03:35.645Z,7.03
2023-01-30T13:06:39.428Z,7.13
2023-01-30T13:09:50.102Z,7.21
2023-01-30T13:12:45.759Z,7.26
2023-01-30T13:15:15.804Z,7.32
2023-01-30T13:18:15.197Z,7.30
2023-01-30T13:21:12.652Z,7.26
2023-01-30T13:24:04.795Z,7.22
2023-01-30T13:26:35.963Z,7.23
2023-01-30T13:29:31.561Z,7.21
2023-01-30T13:32:02.540Z,7.22
2023-01-30T13:34:36.941Z,7.25
2023-01-30T13:37:22.386Z,7.29
2023-01-30T13:40:28.696Z,7.29
2023-01-30T13:43:23.806Z,7.25
2023-01-30T13:45:54.636Z,7.21
2023-01-30T13:48:49.148Z,7.12
2023-01-30T13:51:43.792Z,6.95
2023-01-30T13:54:39.812Z,6.73
2023-01-30T13:57:40.964Z,6.53
2023-01-30T14:00:17.402Z,6.34
2023-01-30T14:03:03.206Z,6.21
2023-01-30T14:05:51.922Z,6.09
2023-01-30T14:08:25.802Z,5.99
2023-01-30T14:10:55.681Z,5.74
2023-01-30T14:13:26.791Z,5.38
2023-01-30T14:16:02.497Z,5.10
2023-01-30T14:18:35.984Z,4.91
2023-01-30T14:21:20.243Z,4.80
2023-01-30T14:24:05.118Z,4.78
2023-01-30T14:26:50.602Z,4.82
2023-01-30T14:29:39.212Z,4.89
2023-01-30T14:32:15.430Z,4.96
2023-01-30T14:35:06.871Z,4.97
2023-01-30T14:37:39.471Z,4.95
2023-01-30T14:40:21.387Z,4.92
2023-01-30T14:43:13.211Z,4.85
2023-01-30T14:45:52.793Z,4.85
2023-01-30T14:48:55.339Z,4.85
2023-01-30T14:51:40.268Z,4.86
2023-01-30T14:54:13.763Z,4.87
2023-01-30T14:57:00.374Z,4.82
2023-01-30T14:59:54.100Z,4.77
2023-01-30T15:02:34.903Z,4.74
2023-01-30T15:05:02.160Z,4.72
2023-01-30T15:08:07.705Z,4.70
2023-01-30T15:10:55.642Z,4.71
2023-01-30T15:13:57.952Z,4.74
2023-01-30T15:17:02.106Z,4.79
2023-01-30T15:20:07.863Z,4.83
2023-01-30T15:23:07.510Z,4.84
2023-01-30T15:26:18.459Z,4.79
2023-01-30T15:29:27.188Z,4.75
2023-01-30T15:32:13.355Z,4.78
2023-01-30T15:34:56.189Z,4.81
2023-01-30T15:37:40.356Z,4.84
2023-01-30T15:40:22.618Z,4.89
2023-01-30T15:43:10.852Z,4.92
2023-01-30T15:45:47.277Z,4.97
2023-01-30T15:49:07.994Z,5.01
2023-01-30T15:51:35.313Z,5.05
2023-01-30T15:54:10.435Z,5.08
2023-01-30T15:56:40.118Z,5.11
2023-01-30T15:59:08.332Z,5.13
2023-01-30T16:01:35.486Z,5.10
2023-01-30T16:04:07.947Z,5.02
2023-01-30T16:06:37.628Z,4.94
2023-01-30T16:09:21.773Z,4.85
2023-01-30T16:11:49.216Z,4.80
2023-01-30T16:14:19.038Z,4.80
2023-01-30T16:16:57.082Z,4.85
2023-01-30T16:19:30.097Z,4.93
2023-01-30T16:22:06.515Z,5.02
2023-01-30T16:24:37.453Z,5.08
2023-01-30T16:27:27.846Z,5.10
2023-01-30T16:30:00.510Z,5.10
2023-01-30T16:32:29.748Z,5.06
2023-01-30T16:35:26.896Z,5.00
2023-01-30T16:37:57.252Z,4.97
2023-01-30T16:40:28.978Z,4.95
2023-01-30T16:43:21.702Z,4.93
2023-01-30T16:45:54.788Z,4.93
2023-01-30T16:48:36.981Z,4.92
2023-01-30T16:51:30.364Z,4.90
2023-01-30T16:54:02.960Z,4.88
2023-01-30T16:56:33.930Z,4.89
2023-01-30T16:59:02.353Z,4.89
2023-01-30T17:01:40.240Z,4.92
2023-01-30T17:04:18.824Z,4.94
2023-01-30T17:06:54.089Z,4.97
2023-01-30T17:09:44.599Z,4.97
2023-01-30T17:12:37.264Z,5.01
2023-01-30T17:15:11.734Z,5.02
2023-01-30T17:17:39.910Z,5.00
2023-01-30T17:20:08.502Z,4.97
2023-01-30T17:22:37.741Z,4.94
2023-01-30T17:25:14.530Z,4.96
2023-01-30T17:27:41.501Z,4.97
2023-01-30T17:30:16.218Z,5.02
2023-01-30T17:32:43.231Z,5.03
2023-01-30T17:35:12.423Z,5.07
2023-01-30T17:37:39.501Z,5.11
2023-01-30T17:40:25.275Z,5.14
2023-01-30T17:42:52.311Z,5.18
2023-01-30T17:45:19.587Z,5.21
2023-01-30T17:47:46.791Z,5.24
2023-01-30T17:50:14.614Z,5.28
2023-01-30T17:52:41.936Z,5.30
2023-01-30T17:55:13.341Z,5.34
2023-01-30T17:57:48.974Z,5.37
2023-01-30T18:00:20.585Z,5.42
2023-01-30T18:02:48.138Z,5.46
2023-01-30T18:05:15.423Z,5.51
2023-01-30T18:07:42.794Z,5.52
2023-01-30T18:10:17.769Z,5.55
2023-01-30T18:12:48.284Z,5.59
2023-01-30T18:15:16.420Z,5.64
2023-01-30T18:17:49.109Z,5.70
2023-01-30T18:20:20.117Z,5.76
2023-01-30T18:22:47.622Z,5.77
2023-01-30T18:25:16.220Z,5.82
2023-01-30T18:27:44.680Z,5.84
2023-01-30T18:30:16.877Z,5.84
2023-01-30T18:32:52.979Z,5.88
2023-01-30T18:35:22.575Z,5.89
2023-01-30T18:37:50.121Z,5.91
2023-01-30T18:40:18.666Z,5.93
2023-01-30T18:42:46.368Z,5.96
2023-01-30T18:45:13.329Z,5.94
2023-01-30T18:47:40.310Z,5.95
2023-01-30T18:50:07.591Z,5.96
2023-01-30T18:52:34.596Z,5.96
2023-01-30T18:55:02.227Z,5.96
2023-01-30T18:57:29.185Z,5.95
2023-01-30T18:59:56.182Z,5.95
2023-01-30T19:02:23.192Z,5.97
2023-01-30T19:04:50.162Z,5.98
2023-01-30T19:07:17.136Z,5.98
2023-01-30T19:09:44.130Z,6.03
2023-01-30T19:12:29.781Z,6.05
2023-01-30T19:14:56.793Z,6.07
2023-01-30T19:17:23.771Z,6.06
2023-01-30T19:19:50.737Z,6.01
2023-01-30T19:22:18.257Z,5.97
2023-01-30T19:24:45.300Z,5.91
2023-01-30T19:27:13.956Z,5.86
2023-01-30T19:29:44.090Z,5.82
2023-01-30T19:32:11.138Z,5.80
2023-01-30T19:34:38.535Z,5.78
2023-01-30T19:37:05.966Z,5.74
2023-01-30T19:39:32.967Z,5.73
2023-01-30T19:42:00.168Z,5.74
2023-01-30T19:44:27.159Z,5.78
2023-01-30T19:46:54.170Z,5.82
2023-01-30T19:49:21.257Z,5.86
2023-01-30T19:51:48.284Z,5.89
2023-01-30T19:54:16.076Z,5.88
2023-01-30T19:56:47.394Z,5.83
2023-01-30T19:59:16.121Z,5.75
2023-01-30T20:01:43.137Z,5.63
2023-01-30T20:04:10.155Z,5.50
2023-01-30T20:06:38.185Z,5.40
2023-01-30T20:09:11.331Z,5.29
2023-01-30T20:11:40.971Z,5.22
2023-01-30T20:14:09.901Z,5.15
2023-01-30T20:16:37.409Z,5.09
2023-01-30T20:19:14.701Z,5.06
2023-01-30T20:21:43.067Z,5.02
2023-01-30T20:24:16.616Z,5.03
2023-01-30T20:26:47.855Z,5.06
2023-01-30T20:29:17.510Z,5.07
2023-01-30T20:31:44.583Z,5.11
2023-01-30T20:34:13.610Z,5.18
2023-01-30T20:36:41.217Z,5.27
2023-01-30T20:39:08.682Z,5.34
2023-01-30T20:41:37.637Z,5.38
2023-01-30T20:44:07.549Z,5.43
2023-01-30T20:46:44.109Z,5.41
2023-01-30T20:49:22.826Z,5.39
2023-01-30T20:51:52.925Z,5.32
2023-01-30T20:54:23.037Z,5.26
2023-01-30T20:56:53.427Z,5.28
2023-01-30T20:59:27.192Z,5.35
2023-01-30T21:01:54.627Z,5.42
2023-01-30T21:04:24.312Z,5.48
2023-01-30T21:06:51.411Z,5.54
2023-01-30T21:09:22.091Z,5.60
2023-01-30T21:11:51.165Z,5.64
2023-01-30T21:14:18.372Z,5.71
2023-01-30T21:16:46.487Z,5.75
2023-01-30T21:19:16.541Z,5.78
2023-01-30T21:21:51.045Z,5.77
2023-01-30T21:24:25.150Z,5.76
2023-01-30T21:26:53.219Z,5.75
2023-01-30T21:29:25.148Z,5.68
2023-01-30T21:31:52.881Z,5.63
2023-01-30T21:34:19.988Z,5.58
2023-01-30T21:37:06.898Z,5.51
2023-01-30T21:39:52.859Z,5.46
2023-01-30T21:42:39.104Z,5.45
2023-01-30T21:45:06.987Z,5.45
2023-01-30T21:47:34.103Z,5.44
2023-01-30T21:50:02.187Z,5.43
2023-01-30T21:52:31.975Z,5.42
2023-01-30T21:54:59.081Z,5.40
2023-01-30T21:57:26.063Z,5.38
2023-01-30T21:59:53.031Z,5.37
2023-01-30T22:02:20.232Z,5.37
2023-01-30T22:04:47.172Z,5.34
2023-01-30T22:07:14.159Z,5.27
2023-01-30T22:09:41.129Z,5.19
2023-01-30T22:12:08.101Z,5.09
2023-01-30T22:14:36.378Z,4.94
2023-01-30T22:17:03.511Z,4.79
2023-01-30T22:19:35.312Z,4.68
2023-01-30T22:22:02.971Z,4.59
2023-01-30T22:24:30.266Z,4.50
2023-01-30T22:26:57.656Z,4.43
2023-01-30T22:29:24.780Z,4.35
2023-01-30T22:31:51.837Z,4.29
2023-01-30T22:34:19.210Z,4.24
2023-01-30T22:36:47.830Z,4.20
2023-01-30T22:39:14.927Z,4.16
2023-01-30T22:41:41.935Z,4.12
2023-01-30T22:44:10.748Z,4.11
2023-01-30T22:46:40.235Z,4.10
2023-01-30T22:49:09.411Z,4.08
2023-01-30T22:51:39.978Z,4.06
2023-01-30T22:54:16.574Z,4.01
2023-01-30T22:56:46.877Z,4.00
2023-01-30T22:59:14.346Z,3.97
2023-01-30T23:01:53.134Z,3.97
2023-01-30T23:04:23.145Z,3.95
2023-01-30T23:06:51.926Z,4.14
2023-01-30T23:09:22.309Z,4.37
2023-01-30T23:12:12.217Z,4.33
2023-01-30T23:14:39.674Z,4.21
2023-01-30T23:17:25.715Z,4.10
2023-01-30T23:19:53.916Z,3.98
2023-01-30T23:22:21.029Z,3.90
2023-01-30T23:24:48.819Z,3.85
2023-01-30T23:27:16.024Z,3.82
2023-01-30T23:29:43.011Z,3.79
2023-01-30T23:32:10.138Z,3.76
2023-01-30T23:34:37.584Z,3.75
2023-01-30T23:37:04.665Z,3.74
2023-01-30T23:39:31.593Z,3.73
2023-01-30T23:41:58.550Z,3.71
2023-01-30T23:44:25.510Z,3.71
2023-01-30T23:46:52.628Z,3.70
2023-01-30T23:49:19.614Z,3.70
2023-01-30T23:51:46.811Z,3.68
2023-01-30T23:54:14.583Z,3.67
2023-01-30T23:56:44.785Z,3.62
2023-01-30T23:59:12.608Z,3.61
